Terminal Aerodrome Forecast
Issued by NWS

Home | Current Version | Previous Version | Text Only | Print | Product List | Glossary On
Versions: 1 2 3 4 5 6 7 8 9 10 11 12 13 14 15
000
FTUS44 KOUN 210520
TAFCSM
TAF
KCSM 210520Z 2106/2206 16006KT P6SM FEW250
     FM211000 12005KT 4SM BR BKN008
      TEMPO 2111/2115 1/2SM FG OVC003
     FM211500 13008KT P6SM BKN008
     FM211700 16010KT P6SM BKN250=

USA.gov is the U.S. government's official web portal to all federal, state and local government web resources and services.